Terminal Aerodrome Forecast
Issued by NWS

Home | Current Version | Previous Version | Text Only | Print | Product List | Glossary On
Versions: 1 2 3 4 5 6 7 8 9 10 11 12 13 14 15 16 17
762
FTUS45 KTFX 131604 AAA
TAFBZN
TAF AMD
KBZN 131604Z 1316/1412 32006KT 6SM -SN BR OVC035
      TEMPO 1316/1318 1/2SM SN FG OVC002
     FM131800 25010KT P6SM VCSH SCT030 BKN060
      TEMPO 1318/1321 5SM -SHRASN BKN030
     FM132100 28014G22KT P6SM SCT040 BKN090
     FM140300 21008KT P6SM BKN120=

USA.gov is the U.S. government's official web portal to all federal, state and local government web resources and services.